sensor_id;sensor_type;location;lat;lon;timestamp;temperature;humidity
2543;DHT22;1116;51.502;7.414;2023-04-24T00:00:38;12.20;15.90
2543;DHT22;1116;51.502;7.414;2023-04-24T00:03:10;12.30;16.00
2543;DHT22;1116;51.502;7.414;2023-04-24T00:05:43;12.30;15.10
2543;DHT22;1116;51.502;7.414;2023-04-24T00:08:14;12.30;15.20
2543;DHT22;1116;51.502;7.414;2023-04-24T00:10:45;12.30;16.00
2543;DHT22;1116;51.502;7.414;2023-04-24T00:13:16;12.20;15.90
2543;DHT22;1116;51.502;7.414;2023-04-24T00:15:47;12.30;16.00
2543;DHT22;1116;51.502;7.414;2023-04-24T00:18:18;12.20;16.00
2543;DHT22;1116;51.502;7.414;2023-04-24T00:20:52;12.10;16.40
2543;DHT22;1116;51.502;7.414;2023-04-24T00:23:22;12.10;17.30
2543;DHT22;1116;51.502;7.414;2023-04-24T00:25:53;12.00;15.90
2543;DHT22;1116;51.502;7.414;2023-04-24T00:28:24;11.90;15.80
2543;DHT22;1116;51.502;7.414;2023-04-24T00:30:55;11.80;15.70
2543;DHT22;1116;51.502;7.414;2023-04-24T00:33:29;11.70;15.60
2543;DHT22;1116;51.502;7.414;2023-04-24T00:36:02;11.70;15.70
2543;DHT22;1116;51.502;7.414;2023-04-24T00:38:33;11.60;16.00
2543;DHT22;1116;51.502;7.414;2023-04-24T00:41:04;11.60;16.10
2543;DHT22;1116;51.502;7.414;2023-04-24T00:43:35;11.60;15.90
2543;DHT22;1116;51.502;7.414;2023-04-24T00:46:06;11.60;16.50
2543;DHT22;1116;51.502;7.414;2023-04-24T00:48:39;11.60;17.00
2543;DHT22;1116;51.502;7.414;2023-04-24T00:51:12;11.50;16.10
2543;DHT22;1116;51.502;7.414;2023-04-24T00:53:43;11.50;16.60
2543;DHT22;1116;51.502;7.414;2023-04-24T00:56:14;11.50;15.70
2543;DHT22;1116;51.502;7.414;2023-04-24T00:58:45;11.40;16.40
2543;DHT22;1116;51.502;7.414;2023-04-24T01:01:18;11.40;16.80
2543;DHT22;1116;51.502;7.414;2023-04-24T01:03:51;11.40;17.10
2543;DHT22;1116;51.502;7.414;2023-04-24T01:06:28;11.40;17.00
2543;DHT22;1116;51.502;7.414;2023-04-24T01:09:00;11.40;17.50
2543;DHT22;1116;51.502;7.414;2023-04-24T01:11:31;11.30;17.50
2543;DHT22;1116;51.502;7.414;2023-04-24T01:14:02;11.30;17.60
2543;DHT22;1116;51.502;7.414;2023-04-24T01:16:33;11.20;17.60
2543;DHT22;1116;51.502;7.414;2023-04-24T01:19:06;11.20;17.00
2543;DHT22;1116;51.502;7.414;2023-04-24T01:21:41;11.10;15.60
2543;DHT22;1116;51.502;7.414;2023-04-24T01:24:15;11.20;15.60
2543;DHT22;1116;51.502;7.414;2023-04-24T01:26:47;11.10;15.20
2543;DHT22;1116;51.502;7.414;2023-04-24T01:29:18;11.10;14.70
2543;DHT22;1116;51.502;7.414;2023-04-24T01:31:49;11.10;15.10
2543;DHT22;1116;51.502;7.414;2023-04-24T01:34:20;11.10;13.20
2543;DHT22;1116;51.502;7.414;2023-04-24T01:36:52;11.10;12.80
2543;DHT22;1116;51.502;7.414;2023-04-24T01:39:27;11.20;11.40
2543;DHT22;1116;51.502;7.414;2023-04-24T01:41:58;11.20;11.20
2543;DHT22;1116;51.502;7.414;2023-04-24T01:44:30;11.20;10.50
2543;DHT22;1116;51.502;7.414;2023-04-24T01:47:01;11.20;10.90
2543;DHT22;1116;51.502;7.414;2023-04-24T01:49:33;11.30;10.80
2543;DHT22;1116;51.502;7.414;2023-04-24T01:52:04;11.00;10.10
2543;DHT22;1116;51.502;7.414;2023-04-24T01:54:38;11.20;11.10
2543;DHT22;1116;51.502;7.414;2023-04-24T01:57:09;11.30;11.40
2543;DHT22;1116;51.502;7.414;2023-04-24T01:59:40;11.20;11.10
2543;DHT22;1116;51.502;7.414;2023-04-24T02:02:11;11.20;11.10
2543;DHT22;1116;51.502;7.414;2023-04-24T02:04:42;11.20;11.00
2543;DHT22;1116;51.502;7.414;2023-04-24T02:07:13;11.10;11.50
2543;DHT22;1116;51.502;7.414;2023-04-24T02:09:48;11.20;11.70
2543;DHT22;1116;51.502;7.414;2023-04-24T02:12:19;11.10;11.50
2543;DHT22;1116;51.502;7.414;2023-04-24T02:14:50;11.10;12.50
2543;DHT22;1116;51.502;7.414;2023-04-24T02:17:21;11.10;12.50
2543;DHT22;1116;51.502;7.414;2023-04-24T02:19:52;11.10;12.80
2543;DHT22;1116;51.502;7.414;2023-04-24T02:22:23;11.10;13.00
2543;DHT22;1116;51.502;7.414;2023-04-24T02:24:57;11.00;13.80
2543;DHT22;1116;51.502;7.414;2023-04-24T02:27:30;11.00;15.10
2543;DHT22;1116;51.502;7.414;2023-04-24T02:30:01;10.90;15.00
2543;DHT22;1116;51.502;7.414;2023-04-24T02:32:32;10.80;15.00
2543;DHT22;1116;51.502;7.414;2023-04-24T02:35:05;10.80;15.00
2543;DHT22;1116;51.502;7.414;2023-04-24T02:37:36;10.70;15.00
2543;DHT22;1116;51.502;7.414;2023-04-24T02:40:10;10.60;15.30
2543;DHT22;1116;51.502;7.414;2023-04-24T02:42:41;10.60;15.90
2543;DHT22;1116;51.502;7.414;2023-04-24T02:45:13;10.60;16.10
2543;DHT22;1116;51.502;7.414;2023-04-24T02:47:44;10.50;16.00
2543;DHT22;1116;51.502;7.414;2023-04-24T02:50:15;10.50;16.60
2543;DHT22;1116;51.502;7.414;2023-04-24T02:52:46;10.50;17.10
2543;DHT22;1116;51.502;7.414;2023-04-24T02:55:19;10.40;17.00
2543;DHT22;1116;51.502;7.414;2023-04-24T02:57:50;10.40;17.60
2543;DHT22;1116;51.502;7.414;2023-04-24T03:00:21;10.50;17.80
2543;DHT22;1116;51.502;7.414;2023-04-24T03:02:53;10.30;18.10
2543;DHT22;1116;51.502;7.414;2023-04-24T03:05:24;10.30;18.40
2543;DHT22;1116;51.502;7.414;2023-04-24T03:07:55;10.30;18.40
2543;DHT22;1116;51.502;7.414;2023-04-24T03:10:28;10.30;18.80
2543;DHT22;1116;51.502;7.414;2023-04-24T03:13:00;10.30;19.50
2543;DHT22;1116;51.502;7.414;2023-04-24T03:15:31;10.20;20.00
2543;DHT22;1116;51.502;7.414;2023-04-24T03:18:02;10.20;20.10
2543;DHT22;1116;51.502;7.414;2023-04-24T03:20:33;10.20;20.40
2543;DHT22;1116;51.502;7.414;2023-04-24T03:23:04;10.20;20.70
2543;DHT22;1116;51.502;7.414;2023-04-24T03:25:38;10.20;21.00
2543;DHT22;1116;51.502;7.414;2023-04-24T03:28:10;10.20;21.00
2543;DHT22;1116;51.502;7.414;2023-04-24T03:30:41;10.30;21.70
2543;DHT22;1116;51.502;7.414;2023-04-24T03:33:12;10.40;21.10
2543;DHT22;1116;51.502;7.414;2023-04-24T03:35:43;10.30;20.80
2543;DHT22;1116;51.502;7.414;2023-04-24T03:38:14;10.30;21.10
2543;DHT22;1116;51.502;7.414;2023-04-24T03:40:50;10.30;20.90
2543;DHT22;1116;51.502;7.414;2023-04-24T03:43:21;10.40;21.00
2543;DHT22;1116;51.502;7.414;2023-04-24T03:45:52;10.70;21.50
2543;DHT22;1116;51.502;7.414;2023-04-24T03:48:23;10.40;21.00
2543;DHT22;1116;51.502;7.414;2023-04-24T03:50:54;10.40;21.00
2543;DHT22;1116;51.502;7.414;2023-04-24T03:53:25;10.30;21.30
2543;DHT22;1116;51.502;7.414;2023-04-24T03:55:58;10.30;21.60
2543;DHT22;1116;51.502;7.414;2023-04-24T03:58:29;10.30;21.40
2543;DHT22;1116;51.502;7.414;2023-04-24T04:01:00;10.40;21.20
2543;DHT22;1116;51.502;7.414;2023-04-24T04:03:31;10.40;21.10
2543;DHT22;1116;51.502;7.414;2023-04-24T04:06:03;10.50;21.50
2543;DHT22;1116;51.502;7.414;2023-04-24T04:08:34;10.50;21.00
2543;DHT22;1116;51.502;7.414;2023-04-24T04:11:07;10.50;21.10
2543;DHT22;1116;51.502;7.414;2023-04-24T04:13:38;10.40;21.00
2543;DHT22;1116;51.502;7.414;2023-04-24T04:16:09;10.40;21.80
2543;DHT22;1116;51.502;7.414;2023-04-24T04:18:40;10.40;21.20
2543;DHT22;1116;51.502;7.414;2023-04-24T04:21:17;10.40;20.80
2543;DHT22;1116;51.502;7.414;2023-04-24T04:23:48;10.40;21.00
2543;DHT22;1116;51.502;7.414;2023-04-24T04:26:22;10.40;21.00
2543;DHT22;1116;51.502;7.414;2023-04-24T04:28:53;10.40;21.10
2543;DHT22;1116;51.502;7.414;2023-04-24T04:31:24;10.50;20.90
2543;DHT22;1116;51.502;7.414;2023-04-24T04:33:57;10.40;21.30
2543;DHT22;1116;51.502;7.414;2023-04-24T04:36:29;10.50;20.90
2543;DHT22;1116;51.502;7.414;2023-04-24T04:39:00;10.50;21.10
2543;DHT22;1116;51.502;7.414;2023-04-24T04:41:34;10.50;21.30
2543;DHT22;1116;51.502;7.414;2023-04-24T04:44:08;10.50;20.70
2543;DHT22;1116;51.502;7.414;2023-04-24T04:46:39;10.40;20.50
2543;DHT22;1116;51.502;7.414;2023-04-24T04:49:10;10.50;20.70
2543;DHT22;1116;51.502;7.414;2023-04-24T04:51:44;10.50;20.60
2543;DHT22;1116;51.502;7.414;2023-04-24T04:54:15;10.40;20.40
2543;DHT22;1116;51.502;7.414;2023-04-24T04:56:52;10.40;20.20
2543;DHT22;1116;51.502;7.414;2023-04-24T04:59:25;10.50;20.30
2543;DHT22;1116;51.502;7.414;2023-04-24T05:01:58;10.40;20.00
2543;DHT22;1116;51.502;7.414;2023-04-24T05:04:30;10.40;21.20
2543;DHT22;1116;51.502;7.414;2023-04-24T05:07:01;10.40;20.20
2543;DHT22;1116;51.502;7.414;2023-04-24T05:09:32;10.40;20.60
2543;DHT22;1116;51.502;7.414;2023-04-24T05:12:06;10.50;20.20
2543;DHT22;1116;51.502;7.414;2023-04-24T05:14:36;10.40;20.20
2543;DHT22;1116;51.502;7.414;2023-04-24T05:17:08;10.40;20.70
2543;DHT22;1116;51.502;7.414;2023-04-24T05:19:39;10.50;20.20
2543;DHT22;1116;51.502;7.414;2023-04-24T05:22:11;10.50;19.90
2543;DHT22;1116;51.502;7.414;2023-04-24T05:24:42;10.60;19.80
2543;DHT22;1116;51.502;7.414;2023-04-24T05:27:16;10.70;19.90
2543;DHT22;1116;51.502;7.414;2023-04-24T05:29:47;10.80;19.20
2543;DHT22;1116;51.502;7.414;2023-04-24T05:32:18;10.80;18.50
2543;DHT22;1116;51.502;7.414;2023-04-24T05:34:49;10.70;17.90
2543;DHT22;1116;51.502;7.414;2023-04-24T05:37:20;10.70;17.70
2543;DHT22;1116;51.502;7.414;2023-04-24T05:39:51;10.80;17.90
2543;DHT22;1116;51.502;7.414;2023-04-24T05:42:24;10.90;17.70
2543;DHT22;1116;51.502;7.414;2023-04-24T05:44:55;10.90;17.10
2543;DHT22;1116;51.502;7.414;2023-04-24T05:47:26;10.70;16.90
2543;DHT22;1116;51.502;7.414;2023-04-24T05:49:57;10.70;17.60
2543;DHT22;1116;51.502;7.414;2023-04-24T05:52:29;10.70;17.70
2543;DHT22;1116;51.502;7.414;2023-04-24T05:55:00;10.60;18.30
2543;DHT22;1116;51.502;7.414;2023-04-24T05:57:33;10.50;19.10
2543;DHT22;1116;51.502;7.414;2023-04-24T06:00:06;10.90;20.80
2543;DHT22;1116;51.502;7.414;2023-04-24T06:02:40;10.40;21.40
2543;DHT22;1116;51.502;7.414;2023-04-24T06:05:11;10.40;21.80
2543;DHT22;1116;51.502;7.414;2023-04-24T06:07:45;10.40;22.90
2543;DHT22;1116;51.502;7.414;2023-04-24T06:10:15;10.30;23.30
2543;DHT22;1116;51.502;7.414;2023-04-24T06:12:49;10.30;24.40
2543;DHT22;1116;51.502;7.414;2023-04-24T06:15:22;10.30;25.00
2543;DHT22;1116;51.502;7.414;2023-04-24T06:17:53;10.40;25.30
2543;DHT22;1116;51.502;7.414;2023-04-24T06:20:24;10.40;25.70
2543;DHT22;1116;51.502;7.414;2023-04-24T06:22:56;10.40;25.60
2543;DHT22;1116;51.502;7.414;2023-04-24T06:25:27;10.30;25.60
2543;DHT22;1116;51.502;7.414;2023-04-24T06:28:01;10.30;25.10
2543;DHT22;1116;51.502;7.414;2023-04-24T06:30:32;10.20;25.10
2543;DHT22;1116;51.502;7.414;2023-04-24T06:33:03;10.20;25.50
2543;DHT22;1116;51.502;7.414;2023-04-24T06:35:48;10.30;25.30
2543;DHT22;1116;51.502;7.414;2023-04-24T06:38:18;10.20;24.10
2543;DHT22;1116;51.502;7.414;2023-04-24T06:40:50;10.20;24.50
2543;DHT22;1116;51.502;7.414;2023-04-24T06:43:23;10.30;24.00
2543;DHT22;1116;51.502;7.414;2023-04-24T06:45:54;10.30;23.60
2543;DHT22;1116;51.502;7.414;2023-04-24T06:48:25;10.30;24.00
2543;DHT22;1116;51.502;7.414;2023-04-24T06:50:57;10.30;23.90
2543;DHT22;1116;51.502;7.414;2023-04-24T06:53:27;10.30;23.30
2543;DHT22;1116;51.502;7.414;2023-04-24T06:55:58;10.30;24.20
2543;DHT22;1116;51.502;7.414;2023-04-24T06:58:34;10.30;24.00
2543;DHT22;1116;51.502;7.414;2023-04-24T07:01:05;10.40;23.40
2543;DHT22;1116;51.502;7.414;2023-04-24T07:03:36;10.60;23.80
2543;DHT22;1116;51.502;7.414;2023-04-24T07:06:07;11.30;21.90
2543;DHT22;1116;51.502;7.414;2023-04-24T07:08:39;11.60;20.10
2543;DHT22;1116;51.502;7.414;2023-04-24T07:11:13;11.50;19.10
2543;DHT22;1116;51.502;7.414;2023-04-24T07:13:46;11.40;20.80
2543;DHT22;1116;51.502;7.414;2023-04-24T07:16:18;11.20;21.20
2543;DHT22;1116;51.502;7.414;2023-04-24T07:18:49;11.20;23.30
2543;DHT22;1116;51.502;7.414;2023-04-24T07:21:20;11.00;23.80
2543;DHT22;1116;51.502;7.414;2023-04-24T07:23:51;10.90;25.00
2543;DHT22;1116;51.502;7.414;2023-04-24T07:26:22;10.70;25.70
2543;DHT22;1116;51.502;7.414;2023-04-24T07:28:56;10.70;27.50
2543;DHT22;1116;51.502;7.414;2023-04-24T07:31:28;10.70;26.90
2543;DHT22;1116;51.502;7.414;2023-04-24T07:34:00;10.60;27.10
2543;DHT22;1116;51.502;7.414;2023-04-24T07:36:31;10.90;27.40
2543;DHT22;1116;51.502;7.414;2023-04-24T07:39:02;10.50;26.60
2543;DHT22;1116;51.502;7.414;2023-04-24T07:41:33;10.40;26.50
2543;DHT22;1116;51.502;7.414;2023-04-24T07:44:07;10.40;26.80
2543;DHT22;1116;51.502;7.414;2023-04-24T07:46:41;10.40;28.00
2543;DHT22;1116;51.502;7.414;2023-04-24T07:49:15;10.20;29.20
2543;DHT22;1116;51.502;7.414;2023-04-24T07:51:47;10.10;30.50
2543;DHT22;1116;51.502;7.414;2023-04-24T07:54:20;10.10;32.50
2543;DHT22;1116;51.502;7.414;2023-04-24T07:56:51;10.10;36.20
2543;DHT22;1116;51.502;7.414;2023-04-24T07:59:25;10.10;35.90
2543;DHT22;1116;51.502;7.414;2023-04-24T08:01:56;10.00;39.90
2543;DHT22;1116;51.502;7.414;2023-04-24T08:04:29;9.90;41.10
2543;DHT22;1116;51.502;7.414;2023-04-24T08:07:00;10.00;39.70
2543;DHT22;1116;51.502;7.414;2023-04-24T08:09:31;10.10;36.50
2543;DHT22;1116;51.502;7.414;2023-04-24T08:12:02;10.20;34.80
2543;DHT22;1116;51.502;7.414;2023-04-24T08:14:36;10.20;31.90
2543;DHT22;1116;51.502;7.414;2023-04-24T08:17:07;10.30;33.00
2543;DHT22;1116;51.502;7.414;2023-04-24T08:19:39;10.10;31.80
2543;DHT22;1116;51.502;7.414;2023-04-24T08:22:12;10.20;30.90
2543;DHT22;1116;51.502;7.414;2023-04-24T08:24:46;10.00;33.10
2543;DHT22;1116;51.502;7.414;2023-04-24T08:27:17;9.90;34.00
2543;DHT22;1116;51.502;7.414;2023-04-24T08:29:52;9.90;35.90
2543;DHT22;1116;51.502;7.414;2023-04-24T08:32:23;9.90;37.60
2543;DHT22;1116;51.502;7.414;2023-04-24T08:34:56;9.90;36.50
2543;DHT22;1116;51.502;7.414;2023-04-24T08:37:27;10.00;36.20
2543;DHT22;1116;51.502;7.414;2023-04-24T08:39:58;10.00;35.00
2543;DHT22;1116;51.502;7.414;2023-04-24T08:42:30;10.00;35.50
2543;DHT22;1116;51.502;7.414;2023-04-24T08:45:06;10.00;35.60
2543;DHT22;1116;51.502;7.414;2023-04-24T08:47:38;10.00;35.70
2543;DHT22;1116;51.502;7.414;2023-04-24T08:50:12;9.90;37.10
2543;DHT22;1116;51.502;7.414;2023-04-24T08:52:44;9.90;36.30
2543;DHT22;1116;51.502;7.414;2023-04-24T08:55:15;9.90;36.70
2543;DHT22;1116;51.502;7.414;2023-04-24T08:57:51;9.90;36.30
2543;DHT22;1116;51.502;7.414;2023-04-24T09:00:24;9.80;36.90
2543;DHT22;1116;51.502;7.414;2023-04-24T09:02:56;9.80;37.50
2543;DHT22;1116;51.502;7.414;2023-04-24T09:05:29;9.80;38.60
2543;DHT22;1116;51.502;7.414;2023-04-24T09:08:02;9.60;41.60
2543;DHT22;1116;51.502;7.414;2023-04-24T09:10:35;9.60;43.50
2543;DHT22;1116;51.502;7.414;2023-04-24T09:13:06;9.60;46.00
2543;DHT22;1116;51.502;7.414;2023-04-24T09:15:41;9.50;52.70
2543;DHT22;1116;51.502;7.414;2023-04-24T09:18:12;9.50;60.20
2543;DHT22;1116;51.502;7.414;2023-04-24T09:20:58;9.50;67.90
2543;DHT22;1116;51.502;7.414;2023-04-24T09:23:31;9.40;70.90
2543;DHT22;1116;51.502;7.414;2023-04-24T09:26:03;9.40;85.80
2543;DHT22;1116;51.502;7.414;2023-04-24T09:28:37;9.50;99.90
2543;DHT22;1116;51.502;7.414;2023-04-24T09:31:14;9.40;99.90
2543;DHT22;1116;51.502;7.414;2023-04-24T09:33:54;9.40;99.90
2543;DHT22;1116;51.502;7.414;2023-04-24T09:36:30;9.40;99.90
2543;DHT22;1116;51.502;7.414;2023-04-24T09:39:02;9.50;99.90
2543;DHT22;1116;51.502;7.414;2023-04-24T09:41:44;9.60;99.90
2543;DHT22;1116;51.502;7.414;2023-04-24T09:44:17;9.60;99.90
2543;DHT22;1116;51.502;7.414;2023-04-24T09:46:53;9.50;99.90
2543;DHT22;1116;51.502;7.414;2023-04-24T09:49:26;9.70;99.90
2543;DHT22;1116;51.502;7.414;2023-04-24T09:52:03;9.80;99.90
2543;DHT22;1116;51.502;7.414;2023-04-24T09:54:37;9.70;99.90
2543;DHT22;1116;51.502;7.414;2023-04-24T09:57:08;9.70;99.90
2543;DHT22;1116;51.502;7.414;2023-04-24T09:59:42;9.80;99.90
2543;DHT22;1116;51.502;7.414;2023-04-24T10:02:20;9.80;99.90
2543;DHT22;1116;51.502;7.414;2023-04-24T10:04:54;9.90;99.90
2543;DHT22;1116;51.502;7.414;2023-04-24T10:07:28;10.00;99.90
2543;DHT22;1116;51.502;7.414;2023-04-24T10:09:59;10.00;99.90
2543;DHT22;1116;51.502;7.414;2023-04-24T10:12:31;10.00;99.90
2543;DHT22;1116;51.502;7.414;2023-04-24T10:15:02;9.80;99.90
2543;DHT22;1116;51.502;7.414;2023-04-24T10:17:37;9.60;99.90
2543;DHT22;1116;51.502;7.414;2023-04-24T10:20:09;9.60;99.90
2543;DHT22;1116;51.502;7.414;2023-04-24T10:22:43;9.50;99.90
2543;DHT22;1116;51.502;7.414;2023-04-24T10:25:23;9.60;99.90
2543;DHT22;1116;51.502;7.414;2023-04-24T10:27:54;9.60;99.90
2543;DHT22;1116;51.502;7.414;2023-04-24T10:30:29;9.40;99.90
2543;DHT22;1116;51.502;7.414;2023-04-24T10:33:07;9.40;99.90
2543;DHT22;1116;51.502;7.414;2023-04-24T10:35:40;9.30;99.90
2543;DHT22;1116;51.502;7.414;2023-04-24T10:38:13;9.30;99.90
2543;DHT22;1116;51.502;7.414;2023-04-24T10:40:45;9.30;99.90
2543;DHT22;1116;51.502;7.414;2023-04-24T10:43:18;9.30;99.90
2543;DHT22;1116;51.502;7.414;2023-04-24T10:46:03;9.30;99.90
2543;DHT22;1116;51.502;7.414;2023-04-24T10:48:42;9.30;99.90
2543;DHT22;1116;51.502;7.414;2023-04-24T10:51:13;9.30;99.90
2543;DHT22;1116;51.502;7.414;2023-04-24T10:53:44;9.40;99.90
2543;DHT22;1116;51.502;7.414;2023-04-24T10:56:16;9.80;99.90
2543;DHT22;1116;51.502;7.414;2023-04-24T10:58:50;9.60;99.90
2543;DHT22;1116;51.502;7.414;2023-04-24T11:01:27;9.60;99.90
2543;DHT22;1116;51.502;7.414;2023-04-24T11:04:02;9.70;99.90
2543;DHT22;1116;51.502;7.414;2023-04-24T11:06:35;9.70;99.90
2543;DHT22;1116;51.502;7.414;2023-04-24T11:09:08;9.70;99.90
2543;DHT22;1116;51.502;7.414;2023-04-24T11:11:45;9.70;99.90
2543;DHT22;1116;51.502;7.414;2023-04-24T11:14:17;9.70;99.90
2543;DHT22;1116;51.502;7.414;2023-04-24T11:16:52;9.70;99.90
2543;DHT22;1116;51.502;7.414;2023-04-24T11:19:27;9.60;99.90
2543;DHT22;1116;51.502;7.414;2023-04-24T11:22:00;9.60;99.90
2543;DHT22;1116;51.502;7.414;2023-04-24T11:24:39;9.70;99.90
2543;DHT22;1116;51.502;7.414;2023-04-24T11:27:13;9.70;99.90
2543;DHT22;1116;51.502;7.414;2023-04-24T11:29:47;9.70;99.90
2543;DHT22;1116;51.502;7.414;2023-04-24T11:32:26;9.90;99.90
2543;DHT22;1116;51.502;7.414;2023-04-24T11:35:01;9.90;99.90
2543;DHT22;1116;51.502;7.414;2023-04-24T11:37:37;10.00;99.90
2543;DHT22;1116;51.502;7.414;2023-04-24T11:40:10;9.90;99.90
2543;DHT22;1116;51.502;7.414;2023-04-24T11:42:44;10.20;99.90
2543;DHT22;1116;51.502;7.414;2023-04-24T11:45:17;9.90;99.90
2543;DHT22;1116;51.502;7.414;2023-04-24T11:47:48;9.90;99.90
2543;DHT22;1116;51.502;7.414;2023-04-24T11:50:24;10.00;99.90
2543;DHT22;1116;51.502;7.414;2023-04-24T11:52:58;10.10;99.90
2543;DHT22;1116;51.502;7.414;2023-04-24T11:55:29;10.10;99.90
2543;DHT22;1116;51.502;7.414;2023-04-24T11:58:03;10.20;99.90
2543;DHT22;1116;51.502;7.414;2023-04-24T12:00:33;10.30;99.90
2543;DHT22;1116;51.502;7.414;2023-04-24T12:03:07;10.30;99.90
2543;DHT22;1116;51.502;7.414;2023-04-24T12:05:42;10.30;99.90
2543;DHT22;1116;51.502;7.414;2023-04-24T12:08:27;10.40;99.90
2543;DHT22;1116;51.502;7.414;2023-04-24T12:11:00;10.40;99.90
2543;DHT22;1116;51.502;7.414;2023-04-24T12:13:31;10.30;99.90
2543;DHT22;1116;51.502;7.414;2023-04-24T12:16:03;10.20;99.90
2543;DHT22;1116;51.502;7.414;2023-04-24T12:18:40;10.10;99.90
2543;DHT22;1116;51.502;7.414;2023-04-24T12:21:18;10.10;99.90
2543;DHT22;1116;51.502;7.414;2023-04-24T12:23:50;10.00;99.90
2543;DHT22;1116;51.502;7.414;2023-04-24T12:26:21;9.90;99.90
2543;DHT22;1116;51.502;7.414;2023-04-24T12:28:53;10.00;99.90
2543;DHT22;1116;51.502;7.414;2023-04-24T12:31:24;9.90;99.90
2543;DHT22;1116;51.502;7.414;2023-04-24T12:33:57;10.00;99.90
2543;DHT22;1116;51.502;7.414;2023-04-24T12:36:31;10.20;99.90
2543;DHT22;1116;51.502;7.414;2023-04-24T12:39:18;10.50;99.90
2543;DHT22;1116;51.502;7.414;2023-04-24T12:41:56;11.10;99.90
2543;DHT22;1116;51.502;7.414;2023-04-24T12:44:29;10.90;99.90
2543;DHT22;1116;51.502;7.414;2023-04-24T12:47:05;11.10;99.90
2543;DHT22;1116;51.502;7.414;2023-04-24T12:49:37;11.00;95.30
2543;DHT22;1116;51.502;7.414;2023-04-24T12:52:10;10.80;78.60
2543;DHT22;1116;51.502;7.414;2023-04-24T12:54:41;10.70;87.50
2543;DHT22;1116;51.502;7.414;2023-04-24T12:57:16;10.70;81.40
2543;DHT22;1116;51.502;7.414;2023-04-24T12:59:47;10.70;87.30
2543;DHT22;1116;51.502;7.414;2023-04-24T13:13:55;10.40;72.70
2543;DHT22;1116;51.502;7.414;2023-04-24T13:28:27;10.50;53.70
2543;DHT22;1116;51.502;7.414;2023-04-24T13:31:03;10.70;54.30
2543;DHT22;1116;51.502;7.414;2023-04-24T13:33:37;10.80;52.00
2543;DHT22;1116;51.502;7.414;2023-04-24T13:36:10;10.80;49.80
2543;DHT22;1116;51.502;7.414;2023-04-24T13:38:44;10.90;43.00
2543;DHT22;1116;51.502;7.414;2023-04-24T13:41:24;10.70;34.50
2543;DHT22;1116;51.502;7.414;2023-04-24T13:44:18;10.70;34.80
2543;DHT22;1116;51.502;7.414;2023-04-24T13:47:22;10.70;35.40
2543;DHT22;1116;51.502;7.414;2023-04-24T13:49:57;10.60;36.90
2543;DHT22;1116;51.502;7.414;2023-04-24T13:52:32;10.70;32.40
2543;DHT22;1116;51.502;7.414;2023-04-24T13:55:10;10.40;34.20
2543;DHT22;1116;51.502;7.414;2023-04-24T13:58:04;10.40;32.20
2543;DHT22;1116;51.502;7.414;2023-04-24T14:05:05;10.40;32.10
2543;DHT22;1116;51.502;7.414;2023-04-24T14:08:15;10.30;32.10
2543;DHT22;1116;51.502;7.414;2023-04-24T14:11:20;10.40;31.90
2543;DHT22;1116;51.502;7.414;2023-04-24T14:20:38;10.30;28.00
2543;DHT22;1116;51.502;7.414;2023-04-24T14:23:09;10.90;28.20
2543;DHT22;1116;51.502;7.414;2023-04-24T14:25:40;10.50;28.30
2543;DHT22;1116;51.502;7.414;2023-04-24T14:28:38;10.60;28.70
2543;DHT22;1116;51.502;7.414;2023-04-24T14:31:49;10.80;27.40
2543;DHT22;1116;51.502;7.414;2023-04-24T14:34:20;10.90;27.40
2543;DHT22;1116;51.502;7.414;2023-04-24T14:36:53;11.00;25.20
2543;DHT22;1116;51.502;7.414;2023-04-24T14:39:25;11.00;23.80
2543;DHT22;1116;51.502;7.414;2023-04-24T14:41:56;11.00;20.10
2543;DHT22;1116;51.502;7.414;2023-04-24T14:44:27;11.00;20.40
2543;DHT22;1116;51.502;7.414;2023-04-24T14:47:00;11.00;21.90
2543;DHT22;1116;51.502;7.414;2023-04-24T14:49:32;10.90;20.30
2543;DHT22;1116;51.502;7.414;2023-04-24T14:52:05;10.90;21.10
2543;DHT22;1116;51.502;7.414;2023-04-24T14:54:36;10.90;20.60
2543;DHT22;1116;51.502;7.414;2023-04-24T14:57:07;10.80;20.30
2543;DHT22;1116;51.502;7.414;2023-04-24T14:59:39;10.70;20.70
2543;DHT22;1116;51.502;7.414;2023-04-24T15:02:10;10.60;18.80
2543;DHT22;1116;51.502;7.414;2023-04-24T15:04:44;10.60;19.30
2543;DHT22;1116;51.502;7.414;2023-04-24T15:07:20;10.60;20.90
2543;DHT22;1116;51.502;7.414;2023-04-24T15:09:51;10.50;20.80
2543;DHT22;1116;51.502;7.414;2023-04-24T15:12:22;10.40;21.40
2543;DHT22;1116;51.502;7.414;2023-04-24T15:14:53;10.30;24.40
2543;DHT22;1116;51.502;7.414;2023-04-24T15:17:26;10.30;26.30
2543;DHT22;1116;51.502;7.414;2023-04-24T15:19:57;10.20;28.70
2543;DHT22;1116;51.502;7.414;2023-04-24T15:22:31;10.30;29.90
2543;DHT22;1116;51.502;7.414;2023-04-24T15:25:02;10.30;32.00
2543;DHT22;1116;51.502;7.414;2023-04-24T15:27:41;10.30;32.00
2543;DHT22;1116;51.502;7.414;2023-04-24T15:30:12;10.20;32.60
2543;DHT22;1116;51.502;7.414;2023-04-24T15:32:43;10.20;35.10
2543;DHT22;1116;51.502;7.414;2023-04-24T15:35:14;10.00;36.00
2543;DHT22;1116;51.502;7.414;2023-04-24T15:37:51;10.10;42.10
2543;DHT22;1116;51.502;7.414;2023-04-24T15:40:23;10.30;45.10
2543;DHT22;1116;51.502;7.414;2023-04-24T15:42:54;10.50;46.30
2543;DHT22;1116;51.502;7.414;2023-04-24T15:45:25;10.60;43.50
2543;DHT22;1116;51.502;7.414;2023-04-24T15:47:56;10.60;36.30
2543;DHT22;1116;51.502;7.414;2023-04-24T15:50:27;10.60;35.60
2543;DHT22;1116;51.502;7.414;2023-04-24T15:53:01;10.70;36.00
2543;DHT22;1116;51.502;7.414;2023-04-24T15:55:32;10.70;36.10
2543;DHT22;1116;51.502;7.414;2023-04-24T15:58:04;10.80;33.70
2543;DHT22;1116;51.502;7.414;2023-04-24T16:00:35;10.90;35.90
2543;DHT22;1116;51.502;7.414;2023-04-24T16:03:05;11.00;34.70
2543;DHT22;1116;51.502;7.414;2023-04-24T16:05:37;11.10;32.70
2543;DHT22;1116;51.502;7.414;2023-04-24T16:08:10;11.10;30.90
2543;DHT22;1116;51.502;7.414;2023-04-24T16:10:42;11.10;30.30
2543;DHT22;1116;51.502;7.414;2023-04-24T16:13:14;11.20;29.80
2543;DHT22;1116;51.502;7.414;2023-04-24T16:15:46;11.20;27.70
2543;DHT22;1116;51.502;7.414;2023-04-24T16:18:17;11.10;23.80
2543;DHT22;1116;51.502;7.414;2023-04-24T16:20:48;11.20;24.00
2543;DHT22;1116;51.502;7.414;2023-04-24T16:23:21;11.10;22.60
2543;DHT22;1116;51.502;7.414;2023-04-24T16:25:52;11.10;20.00
2543;DHT22;1116;51.502;7.414;2023-04-24T16:28:23;11.10;20.40
2543;DHT22;1116;51.502;7.414;2023-04-24T16:30:54;11.20;21.30
2543;DHT22;1116;51.502;7.414;2023-04-24T16:33:25;11.30;20.50
2543;DHT22;1116;51.502;7.414;2023-04-24T16:35:56;11.30;18.70
2543;DHT22;1116;51.502;7.414;2023-04-24T16:38:30;11.30;19.30
2543;DHT22;1116;51.502;7.414;2023-04-24T16:41:00;11.30;21.20
2543;DHT22;1116;51.502;7.414;2023-04-24T16:43:32;11.40;19.10
2543;DHT22;1116;51.502;7.414;2023-04-24T16:46:02;11.40;18.90
2543;DHT22;1116;51.502;7.414;2023-04-24T16:48:33;11.40;18.90
2543;DHT22;1116;51.502;7.414;2023-04-24T16:51:05;11.30;18.40
2543;DHT22;1116;51.502;7.414;2023-04-24T16:53:39;11.20;18.20
2543;DHT22;1116;51.502;7.414;2023-04-24T16:56:10;11.10;17.20
2543;DHT22;1116;51.502;7.414;2023-04-24T16:58:42;11.00;19.00
2543;DHT22;1116;51.502;7.414;2023-04-24T17:01:13;10.80;20.00
2543;DHT22;1116;51.502;7.414;2023-04-24T17:03:44;11.00;18.50
2543;DHT22;1116;51.502;7.414;2023-04-24T17:06:15;10.90;18.70
2543;DHT22;1116;51.502;7.414;2023-04-24T17:08:48;10.90;18.10
2543;DHT22;1116;51.502;7.414;2023-04-24T17:11:19;10.80;17.50
2543;DHT22;1116;51.502;7.414;2023-04-24T17:13:50;10.70;17.90
2543;DHT22;1116;51.502;7.414;2023-04-24T17:16:21;10.70;17.60